createdAt,value
2023-01-27T00:01:18.365Z,3.20
2023-01-27T00:03:47.081Z,3.20
2023-01-27T00:06:16.671Z,3.10
2023-01-27T00:08:45.192Z,3.10
2023-01-27T00:11:31.165Z,3.10
2023-01-27T00:13:59.824Z,3.10
2023-01-27T00:16:29.383Z,3.10
2023-01-27T00:18:57.918Z,3.10
2023-01-27T00:21:45.885Z,3.10
2023-01-27T00:24:32.349Z,3.10
2023-01-27T00:27:00.713Z,3.10
2023-01-27T00:29:29.229Z,3.10
2023-01-27T00:32:16.445Z,3.10
2023-01-27T00:34:44.936Z,3.10
2023-01-27T00:37:13.279Z,3.10
2023-01-27T00:39:42.086Z,3.10
2023-01-27T00:42:10.274Z,3.10
2023-01-27T00:44:38.717Z,3.10
2023-01-27T00:47:08.581Z,3.10
2023-01-27T00:49:37.192Z,3.10
2023-01-27T00:52:05.813Z,3.10
2023-01-27T00:54:34.611Z,3.00
2023-01-27T00:57:04.396Z,3.00
2023-01-27T00:59:32.945Z,3.00
2023-01-27T01:02:01.553Z,3.00
2023-01-27T01:04:31.419Z,3.00
2023-01-27T01:06:59.769Z,3.00
2023-01-27T01:09:28.374Z,3.00
2023-01-27T01:11:56.612Z,2.90
2023-01-27T01:14:25.220Z,2.90
2023-01-27T01:16:53.468Z,2.90
2023-01-27T01:19:22.089Z,2.80
2023-01-27T01:21:51.733Z,2.80
2023-01-27T01:24:20.368Z,2.80
2023-01-27T01:26:48.976Z,2.80
2023-01-27T01:29:17.454Z,2.80
2023-01-27T01:31:45.832Z,2.90
2023-01-27T01:34:14.379Z,2.90
2023-01-27T01:36:42.668Z,2.80
2023-01-27T01:39:12.490Z,2.90
2023-01-27T01:41:40.758Z,2.80
2023-01-27T01:44:23.513Z,2.80
2023-01-27T01:46:52.058Z,2.90
2023-01-27T01:49:23.752Z,2.80
2023-01-27T01:51:55.648Z,2.80
2023-01-27T01:54:29.037Z,2.80
2023-01-27T01:57:02.375Z,2.80
2023-01-27T01:59:34.762Z,2.90
2023-01-27T02:02:07.490Z,2.90
2023-01-27T02:04:39.898Z,2.90
2023-01-27T02:07:12.336Z,2.80
2023-01-27T02:09:42.187Z,2.80
2023-01-27T02:12:10.939Z,2.90
2023-01-27T02:14:40.413Z,2.90
2023-01-27T02:17:10.359Z,2.80
2023-01-27T02:19:57.005Z,2.80
2023-01-27T02:22:31.955Z,2.80
2023-01-27T02:25:12.597Z,2.80
2023-01-27T02:27:43.301Z,2.80
2023-01-27T02:30:13.384Z,2.80
2023-01-27T02:32:41.803Z,2.80
2023-01-27T02:35:15.047Z,2.80
2023-01-27T02:37:44.194Z,2.80
2023-01-27T02:40:14.631Z,2.80
2023-01-27T02:42:44.398Z,2.80
2023-01-27T02:45:13.112Z,2.80
2023-01-27T02:47:41.409Z,2.80
2023-01-27T02:50:11.299Z,2.80
2023-01-27T02:52:39.492Z,2.80
2023-01-27T02:55:09.218Z,2.80
2023-01-27T02:57:37.769Z,2.80
2023-01-27T03:00:13.223Z,2.80
2023-01-27T03:02:41.579Z,2.80
2023-01-27T03:05:10.563Z,2.80
2023-01-27T03:07:38.915Z,2.80
2023-01-27T03:10:08.381Z,2.80
2023-01-27T03:12:36.945Z,2.80
2023-01-27T03:15:25.758Z,2.80
2023-01-27T03:18:12.871Z,2.70
2023-01-27T03:20:41.653Z,2.70
2023-01-27T03:23:10.296Z,2.70
2023-01-27T03:25:42.897Z,2.70
2023-01-27T03:28:11.616Z,2.70
2023-01-27T03:30:42.611Z,2.70
2023-01-27T03:33:10.954Z,2.70
2023-01-27T03:35:46.525Z,2.70
2023-01-27T03:38:33.242Z,2.60
2023-01-27T03:41:21.394Z,2.60
2023-01-27T03:44:07.383Z,2.60
2023-01-27T03:46:37.632Z,2.60
2023-01-27T03:49:06.129Z,2.60
2023-01-27T03:51:34.555Z,2.60
2023-01-27T03:54:02.764Z,2.70
2023-01-27T03:56:31.319Z,2.60
2023-01-27T03:58:59.485Z,2.60
2023-01-27T04:01:28.059Z,2.60
2023-01-27T04:04:15.401Z,2.60
2023-01-27T04:06:53.505Z,2.60
2023-01-27T04:09:25.215Z,2.60
2023-01-27T04:11:56.074Z,2.60
2023-01-27T04:14:26.294Z,2.60
2023-01-27T04:16:56.563Z,2.50
2023-01-27T04:19:26.938Z,2.50
2023-01-27T04:21:56.248Z,2.50
2023-01-27T04:24:25.264Z,2.50
2023-01-27T04:26:57.234Z,2.50
2023-01-27T04:29:27.494Z,2.50
2023-01-27T04:31:57.793Z,2.50
2023-01-27T04:34:28.807Z,2.50
2023-01-27T04:36:57.907Z,2.50
2023-01-27T04:39:26.740Z,2.50
2023-01-27T04:41:56.518Z,2.50
2023-01-27T04:44:25.121Z,2.50
2023-01-27T04:46:54.738Z,2.50
2023-01-27T04:49:23.371Z,2.50
2023-01-27T04:51:53.186Z,2.50
2023-01-27T04:54:21.555Z,2.50
2023-01-27T04:56:58.281Z,2.50
2023-01-27T04:59:26.932Z,2.50
2023-01-27T05:01:55.705Z,2.50
2023-01-27T05:04:26.257Z,2.50
2023-01-27T05:06:56.715Z,2.50
2023-01-27T05:09:25.624Z,2.50
2023-01-27T05:11:54.140Z,2.50
2023-01-27T05:14:23.622Z,2.50
2023-01-27T05:16:52.566Z,2.50
2023-01-27T05:19:21.128Z,2.50
2023-01-27T05:21:49.750Z,2.50
2023-01-27T05:24:19.365Z,2.50
2023-01-27T05:26:47.973Z,2.50
2023-01-27T05:29:16.260Z,2.50
2023-01-27T05:31:44.939Z,2.50
2023-01-27T05:34:13.191Z,2.50
2023-01-27T05:36:41.704Z,2.50
2023-01-27T05:39:12.588Z,2.40
2023-01-27T05:41:42.615Z,2.40
2023-01-27T05:44:12.734Z,2.40
2023-01-27T05:46:42.758Z,2.40
2023-01-27T05:49:11.197Z,2.40
2023-01-27T05:51:40.928Z,2.40
2023-01-27T05:54:10.018Z,2.40
2023-01-27T05:56:39.270Z,2.40
2023-01-27T05:59:10.976Z,2.40
2023-01-27T06:01:39.543Z,2.40
2023-01-27T06:04:08.112Z,2.40
2023-01-27T06:06:36.800Z,2.40
2023-01-27T06:09:05.172Z,2.40
2023-01-27T06:11:33.911Z,2.40
2023-01-27T06:14:02.148Z,2.40
2023-01-27T06:16:32.055Z,2.40
2023-01-27T06:19:00.449Z,2.30
2023-01-27T06:21:28.978Z,2.30
2023-01-27T06:23:58.284Z,2.30
2023-01-27T06:26:26.923Z,2.30
2023-01-27T06:28:57.239Z,2.30
2023-01-27T06:31:27.464Z,2.20
2023-01-27T06:33:57.519Z,2.20
2023-01-27T06:36:26.154Z,2.20
2023-01-27T06:38:54.375Z,2.20
2023-01-27T06:41:23.007Z,2.20
2023-01-27T06:43:51.213Z,2.20
2023-01-27T06:46:19.850Z,2.20
2023-01-27T06:48:48.265Z,2.20
2023-01-27T06:51:18.497Z,2.20
2023-01-27T06:53:46.923Z,2.10
2023-01-27T06:56:17.214Z,2.20
2023-01-27T06:58:45.885Z,2.20
2023-01-27T07:01:14.703Z,2.20
2023-01-27T07:03:44.679Z,2.20
2023-01-27T07:06:15.088Z,2.20
2023-01-27T07:08:47.089Z,2.20
2023-01-27T07:11:15.806Z,2.20
2023-01-27T07:13:44.002Z,2.20
2023-01-27T07:16:12.729Z,2.20
2023-01-27T07:18:41.093Z,2.20
2023-01-27T07:21:09.662Z,2.20
2023-01-27T07:23:37.849Z,2.20
2023-01-27T07:26:23.243Z,2.20
2023-01-27T07:28:53.327Z,2.20
2023-01-27T07:31:22.105Z,2.20
2023-01-27T07:33:50.466Z,2.20
2023-01-27T07:36:18.888Z,2.20
2023-01-27T07:38:50.437Z,2.20
2023-01-27T07:41:20.529Z,2.20
2023-01-27T07:43:50.715Z,2.20
2023-01-27T07:46:20.309Z,2.10
2023-01-27T07:48:48.563Z,2.10
2023-01-27T07:51:17.570Z,2.10
2023-01-27T07:53:45.797Z,2.10
2023-01-27T07:56:14.293Z,2.10
2023-01-27T07:58:44.026Z,2.10
2023-01-27T08:01:13.944Z,2.10
2023-01-27T08:03:42.307Z,2.10
2023-01-27T08:06:12.791Z,2.10
2023-01-27T08:08:41.688Z,2.10
2023-01-27T08:11:13.192Z,2.10
2023-01-27T08:13:43.195Z,2.10
2023-01-27T08:16:14.355Z,2.20
2023-01-27T08:18:43.645Z,2.20
2023-01-27T08:21:13.758Z,2.20
2023-01-27T08:23:42.037Z,2.30
2023-01-27T08:26:10.604Z,2.30
2023-01-27T08:28:40.852Z,2.40
2023-01-27T08:31:12.774Z,2.50
2023-01-27T08:33:42.319Z,2.50
2023-01-27T08:36:13.001Z,2.50
2023-01-27T08:38:42.151Z,2.50
2023-01-27T08:41:13.918Z,2.50
2023-01-27T08:43:42.540Z,2.50
2023-01-27T08:46:12.557Z,2.60
2023-01-27T08:48:41.240Z,2.60
2023-01-27T08:51:12.333Z,2.60
2023-01-27T08:53:41.106Z,2.60
2023-01-27T08:56:12.500Z,2.60
2023-01-27T08:58:42.097Z,2.60
2023-01-27T09:01:12.217Z,2.50
2023-01-27T09:03:40.723Z,2.50
2023-01-27T09:06:11.385Z,2.60
2023-01-27T09:08:40.120Z,2.60
2023-01-27T09:11:13.484Z,2.60
2023-01-27T09:13:41.948Z,2.60
2023-01-27T09:16:12.229Z,2.70
2023-01-27T09:18:41.221Z,2.70
2023-01-27T09:21:09.654Z,2.70
2023-01-27T09:23:37.867Z,2.60
2023-01-27T09:26:06.678Z,2.60
2023-01-27T09:28:34.994Z,2.60
2023-01-27T09:31:03.617Z,2.60
2023-01-27T09:33:33.619Z,2.70
2023-01-27T09:36:06.323Z,2.70
2023-01-27T09:38:38.262Z,2.70
2023-01-27T09:41:27.826Z,2.80
2023-01-27T09:44:18.978Z,2.80
2023-01-27T09:47:13.304Z,2.90
2023-01-27T09:49:59.739Z,3.00
2023-01-27T09:53:12.301Z,3.00
2023-01-27T09:55:46.550Z,3.00
2023-01-27T09:58:27.307Z,3.10
2023-01-27T10:01:04.521Z,3.10
2023-01-27T10:03:50.208Z,3.10
2023-01-27T10:06:45.993Z,3.00
2023-01-27T10:09:39.548Z,3.00
2023-01-27T10:12:21.702Z,2.90
2023-01-27T10:15:00.764Z,2.90
2023-01-27T10:17:39.769Z,2.90
2023-01-27T10:20:20.171Z,2.90
2023-01-27T10:23:14.681Z,2.90
2023-01-27T10:25:58.127Z,2.90
2023-01-27T10:28:30.110Z,2.90
2023-01-27T10:31:01.206Z,3.00
2023-01-27T10:33:45.870Z,3.00
2023-01-27T10:36:24.603Z,3.10
2023-01-27T10:39:07.591Z,3.20
2023-01-27T10:41:46.868Z,3.20
2023-01-27T10:44:34.266Z,3.40
2023-01-27T10:47:10.374Z,3.50
2023-01-27T10:49:41.691Z,3.50
2023-01-27T10:52:16.433Z,3.50
2023-01-27T10:54:52.765Z,3.60
2023-01-27T10:57:26.495Z,3.50
2023-01-27T11:03:01.576Z,3.50
2023-01-27T11:05:34.943Z,3.40
2023-01-27T11:08:08.740Z,3.40
2023-01-27T11:11:03.330Z,3.40
2023-01-27T11:13:33.273Z,3.40
2023-01-27T11:16:02.716Z,3.30
2023-01-27T11:18:33.565Z,3.30
2023-01-27T11:21:05.808Z,3.30
2023-01-27T11:23:39.761Z,3.30
2023-01-27T11:26:23.364Z,3.30
2023-01-27T11:28:58.226Z,3.30
2023-01-27T11:31:37.987Z,3.30
2023-01-27T11:34:12.769Z,3.20
2023-01-27T11:36:41.283Z,3.30
2023-01-27T11:39:11.421Z,3.30
2023-01-27T11:41:44.864Z,3.30
2023-01-27T11:44:21.025Z,3.30
2023-01-27T11:46:51.766Z,3.20
2023-01-27T11:49:26.609Z,3.30
2023-01-27T11:52:05.630Z,3.30
2023-01-27T11:54:40.295Z,3.30
2023-01-27T11:57:19.390Z,3.30
2023-01-27T11:59:51.476Z,3.30
2023-01-27T12:02:27.443Z,3.30
2023-01-27T12:05:02.614Z,3.30
2023-01-27T12:07:41.858Z,3.30
2023-01-27T12:10:25.414Z,3.30
2023-01-27T12:12:55.313Z,3.30
2023-01-27T12:15:26.252Z,3.30
2023-01-27T12:17:57.642Z,3.30
2023-01-27T12:20:36.063Z,3.30
2023-01-27T12:23:19.988Z,3.30
2023-01-27T12:25:53.826Z,3.20
2023-01-27T12:28:30.987Z,3.20
2023-01-27T12:31:07.054Z,3.20
2023-01-27T12:33:38.345Z,3.10
2023-01-27T12:36:15.453Z,3.10
2023-01-27T12:38:50.263Z,3.10
2023-01-27T12:41:25.213Z,3.10
2023-01-27T12:43:57.335Z,3.10
2023-01-27T12:46:27.670Z,3.10
2023-01-27T12:49:03.848Z,3.10
2023-01-27T12:51:41.682Z,3.10
2023-01-27T12:54:17.866Z,3.10
2023-01-27T12:56:46.877Z,3.10
2023-01-27T12:59:18.686Z,3.10
2023-01-27T13:02:00.806Z,3.10
2023-01-27T13:04:30.127Z,3.00
2023-01-27T13:07:07.722Z,3.00
2023-01-27T13:09:38.883Z,3.00
2023-01-27T13:12:17.895Z,3.00
2023-01-27T13:14:52.260Z,3.00
2023-01-27T13:17:36.944Z,3.00
2023-01-27T13:20:09.640Z,3.00
2023-01-27T13:22:43.590Z,3.00
2023-01-27T13:25:19.445Z,3.00
2023-01-27T13:27:50.624Z,3.00
2023-01-27T13:30:29.834Z,3.00
2023-01-27T13:33:04.424Z,3.00
2023-01-27T13:35:38.440Z,3.00
2023-01-27T13:38:16.506Z,3.00
2023-01-27T13:40:47.302Z,3.00
2023-01-27T13:43:23.330Z,3.00
2023-01-27T13:45:58.502Z,3.00
2023-01-27T13:48:33.383Z,3.00
2023-01-27T13:51:08.209Z,3.00
2023-01-27T13:53:37.253Z,3.10
2023-01-27T13:56:22.010Z,3.10
2023-01-27T13:59:01.568Z,3.10
2023-01-27T14:01:44.822Z,3.10
2023-01-27T14:04:31.567Z,3.10
2023-01-27T14:07:15.469Z,3.10
2023-01-27T14:09:56.628Z,3.10
2023-01-27T14:12:41.233Z,3.10
2023-01-27T14:15:21.983Z,3.20
2023-01-27T14:17:58.432Z,3.10
2023-01-27T14:20:45.632Z,3.00
2023-01-27T14:23:32.228Z,3.00
2023-01-27T14:26:12.740Z,3.00
2023-01-27T14:29:04.647Z,2.90
2023-01-27T14:31:45.841Z,2.90
2023-01-27T14:34:31.882Z,2.90
2023-01-27T14:37:12.115Z,2.80
2023-01-27T14:39:45.387Z,2.80
2023-01-27T14:42:24.605Z,2.80
2023-01-27T14:45:03.653Z,2.80
2023-01-27T14:47:39.814Z,2.80
2023-01-27T14:50:19.904Z,2.80
2023-01-27T14:52:55.780Z,2.80
2023-01-27T14:55:32.798Z,2.80
2023-01-27T14:58:28.319Z,2.70
2023-01-27T15:01:04.466Z,2.70
2023-01-27T15:04:05.368Z,2.80
2023-01-27T15:06:45.122Z,2.70
2023-01-27T15:09:22.541Z,2.70
2023-01-27T15:12:09.361Z,2.70
2023-01-27T15:14:58.034Z,2.70
2023-01-27T15:17:43.310Z,2.60
2023-01-27T15:20:30.589Z,2.60
2023-01-27T15:23:15.884Z,2.50
2023-01-27T15:25:48.618Z,2.50
2023-01-27T15:28:20.628Z,2.50
2023-01-27T15:31:22.991Z,2.50
2023-01-27T15:33:57.087Z,2.50
2023-01-27T15:36:35.755Z,2.40
2023-01-27T15:39:21.832Z,2.40
2023-01-27T15:41:54.506Z,2.30
2023-01-27T15:44:31.016Z,2.20
2023-01-27T15:47:05.682Z,2.20
2023-01-27T15:49:39.021Z,2.10
2023-01-27T15:52:29.893Z,2.00
2023-01-27T15:55:02.789Z,2.00
2023-01-27T15:57:37.707Z,2.00
2023-01-27T16:00:08.963Z,1.90
2023-01-27T16:02:40.072Z,1.90
2023-01-27T16:05:18.683Z,1.90
2023-01-27T16:07:50.958Z,1.90
2023-01-27T16:10:23.452Z,1.90
2023-01-27T16:13:12.035Z,1.90
2023-01-27T16:15:40.284Z,1.80
2023-01-27T16:18:44.635Z,1.80
2023-01-27T16:21:34.959Z,1.80
2023-01-27T16:24:10.853Z,1.80
2023-01-27T16:26:46.477Z,1.80
2023-01-27T16:29:29.392Z,1.80
2023-01-27T16:32:03.093Z,1.80
2023-01-27T16:34:37.361Z,1.80
2023-01-27T16:37:18.800Z,1.80
2023-01-27T16:39:51.573Z,1.80
2023-01-27T16:42:30.144Z,1.80
2023-01-27T16:45:02.417Z,1.80
2023-01-27T16:47:41.407Z,1.80
2023-01-27T16:50:34.001Z,1.80
2023-01-27T16:53:03.684Z,1.80
2023-01-27T16:55:32.580Z,1.80
2023-01-27T16:58:03.693Z,1.80
2023-01-27T17:00:35.862Z,1.80
2023-01-27T17:03:10.400Z,1.80
2023-01-27T17:05:39.263Z,1.80
2023-01-27T17:08:18.504Z,1.80
2023-01-27T17:10:51.601Z,1.80
2023-01-27T17:13:32.972Z,1.80
2023-01-27T17:16:04.634Z,1.80
2023-01-27T17:18:51.871Z,1.80
2023-01-27T17:21:29.805Z,1.80
2023-01-27T17:24:04.448Z,1.80
2023-01-27T17:26:34.325Z,1.90
2023-01-27T17:29:04.405Z,2.00
2023-01-27T17:31:37.851Z,2.10
2023-01-27T17:34:06.427Z,2.20
2023-01-27T17:36:34.875Z,2.30
2023-01-27T17:39:03.149Z,2.40
2023-01-27T17:41:36.576Z,2.50
2023-01-27T17:44:13.065Z,2.70
2023-01-27T17:46:42.489Z,2.80
2023-01-27T17:49:15.531Z,2.90
2023-01-27T17:51:46.567Z,3.00
2023-01-27T17:54:22.354Z,3.20
2023-01-27T17:56:53.096Z,3.20
2023-01-27T17:59:26.629Z,3.20
2023-01-27T18:01:57.227Z,3.10
2023-01-27T18:04:26.163Z,3.10
2023-01-27T18:06:54.630Z,3.10
2023-01-27T18:09:27.156Z,3.10
2023-01-27T18:11:58.204Z,3.10
2023-01-27T18:14:30.715Z,3.10
2023-01-27T18:17:04.453Z,3.10
2023-01-27T18:19:33.764Z,3.20
2023-01-27T18:22:05.549Z,3.20
2023-01-27T18:24:34.340Z,3.20
2023-01-27T18:27:02.954Z,3.20
2023-01-27T18:29:36.300Z,3.20
2023-01-27T18:32:15.535Z,3.20
2023-01-27T18:34:48.241Z,3.20
2023-01-27T18:37:27.286Z,3.20
2023-01-27T18:39:55.956Z,3.20
2023-01-27T18:42:26.455Z,3.20
2023-01-27T18:44:57.245Z,3.20
2023-01-27T18:47:31.330Z,3.20
2023-01-27T18:50:03.276Z,3.20
2023-01-27T18:52:32.191Z,3.20
2023-01-27T18:55:03.657Z,3.20
2023-01-27T18:57:32.936Z,3.10
2023-01-27T19:00:02.552Z,3.00
2023-01-27T19:02:31.184Z,2.90
2023-01-27T19:04:59.490Z,2.90
2023-01-27T19:07:28.052Z,2.90
2023-01-27T19:09:56.246Z,2.90
2023-01-27T19:12:24.932Z,2.80
2023-01-27T19:14:53.209Z,2.70
2023-01-27T19:17:24.304Z,2.70
2023-01-27T19:19:55.679Z,2.60
2023-01-27T19:22:24.453Z,2.60
2023-01-27T19:24:52.938Z,2.60
2023-01-27T19:27:21.942Z,2.60
2023-01-27T19:29:50.359Z,2.60
2023-01-27T19:32:18.944Z,2.60
2023-01-27T19:34:48.504Z,2.70
2023-01-27T19:37:18.872Z,2.70
2023-01-27T19:39:48.970Z,2.70
2023-01-27T19:42:17.749Z,2.70
2023-01-27T19:44:45.917Z,2.70
2023-01-27T19:47:15.207Z,2.60
2023-01-27T19:49:43.371Z,2.60
2023-01-27T19:52:13.157Z,2.60
2023-01-27T19:54:41.368Z,2.50
2023-01-27T19:57:17.020Z,2.50
2023-01-27T19:59:45.457Z,2.40
2023-01-27T20:02:14.303Z,2.40
2023-01-27T20:04:42.521Z,2.30
2023-01-27T20:07:13.934Z,2.30
2023-01-27T20:09:42.206Z,2.20
2023-01-27T20:12:16.234Z,2.20
2023-01-27T20:14:44.847Z,2.10
2023-01-27T20:17:13.351Z,2.00
2023-01-27T20:19:42.353Z,2.00
2023-01-27T20:22:14.624Z,1.90
2023-01-27T20:24:42.827Z,1.90
2023-01-27T20:27:11.410Z,1.90
2023-01-27T20:29:39.725Z,1.90
2023-01-27T20:32:09.573Z,1.90
2023-01-27T20:34:38.601Z,1.90
2023-01-27T20:37:07.287Z,1.90
2023-01-27T20:39:36.850Z,1.80
2023-01-27T20:42:05.437Z,1.90
2023-01-27T20:44:34.243Z,1.80
2023-01-27T20:47:02.795Z,1.80
2023-01-27T20:49:31.076Z,1.70
2023-01-27T20:51:59.850Z,1.70
2023-01-27T20:54:27.995Z,1.60
2023-01-27T20:56:57.857Z,1.60
2023-01-27T20:59:26.077Z,1.50
2023-01-27T21:01:54.838Z,1.40
2023-01-27T21:04:23.015Z,1.30
2023-01-27T21:06:51.579Z,1.30
2023-01-27T21:09:19.889Z,1.20
2023-01-27T21:11:48.369Z,1.10
2023-01-27T21:14:17.976Z,1.00
2023-01-27T21:16:46.581Z,1.00
2023-01-27T21:19:15.098Z,0.90
2023-01-27T21:21:44.502Z,0.80
2023-01-27T21:24:13.225Z,0.70
2023-01-27T21:26:42.125Z,0.70
2023-01-27T21:29:12.313Z,0.60
2023-01-27T21:31:42.274Z,0.60
2023-01-27T21:34:11.885Z,0.60
2023-01-27T21:36:40.632Z,0.50
2023-01-27T21:39:09.146Z,0.40
2023-01-27T21:41:55.140Z,0.40
2023-01-27T21:44:43.268Z,0.40
2023-01-27T21:47:14.989Z,0.40
2023-01-27T21:50:04.233Z,0.40
2023-01-27T21:52:35.927Z,0.30
2023-01-27T21:55:06.687Z,0.30
2023-01-27T21:57:36.084Z,0.30
2023-01-27T22:00:05.686Z,0.30
2023-01-27T22:02:36.041Z,0.30
2023-01-27T22:05:04.778Z,0.20
2023-01-27T22:07:38.301Z,0.20
2023-01-27T22:10:07.781Z,0.10
2023-01-27T22:12:36.294Z,0.10
2023-01-27T22:15:06.507Z,0.00
2023-01-27T22:17:36.584Z,0.10
2023-01-27T22:20:06.019Z,0.00
2023-01-27T22:22:34.524Z,0.00
2023-01-27T22:25:02.785Z,0.00
2023-01-27T22:27:31.396Z,0.00
2023-01-27T22:29:59.875Z,-0.10
2023-01-27T22:32:28.425Z,-0.10
2023-01-27T22:34:58.015Z,-0.10
2023-01-27T22:37:26.791Z,-0.10
2023-01-27T22:39:54.935Z,-0.10
2023-01-27T22:42:23.482Z,-0.20
2023-01-27T22:44:52.238Z,-0.20
2023-01-27T22:47:21.042Z,-0.20
2023-01-27T22:49:49.304Z,-0.20
2023-01-27T22:52:19.180Z,-0.30
2023-01-27T22:54:47.328Z,-0.30
2023-01-27T22:57:15.867Z,-0.30
2023-01-27T22:59:44.167Z,-0.30
2023-01-27T23:02:13.000Z,-0.40
2023-01-27T23:04:41.376Z,-0.40
2023-01-27T23:07:09.875Z,-0.40
2023-01-27T23:09:39.447Z,-0.50
2023-01-27T23:12:08.460Z,-0.50
2023-01-27T23:14:37.179Z,-0.50
2023-01-27T23:17:05.836Z,-0.50
2023-01-27T23:19:34.196Z,-0.50
2023-01-27T23:22:02.751Z,-0.50
2023-01-27T23:24:31.036Z,-0.50
2023-01-27T23:27:01.039Z,-0.60
2023-01-27T23:29:29.495Z,-0.60
2023-01-27T23:31:58.103Z,-0.60
2023-01-27T23:34:26.519Z,-0.60
2023-01-27T23:36:55.024Z,-0.60
2023-01-27T23:39:23.314Z,-0.60
2023-01-27T23:41:51.745Z,-0.70
2023-01-27T23:44:21.723Z,-0.70
2023-01-27T23:46:50.241Z,-0.70
2023-01-27T23:49:18.460Z,-0.70
2023-01-27T23:51:46.962Z,-0.70
2023-01-27T23:54:15.096Z,-0.70
2023-01-27T23:56:43.625Z,-0.80
2023-01-27T23:59:13.214Z,-0.80
